sensor_id;sensor_type;location;lat;lon;timestamp;P1;durP1;ratioP1;P2;durP2;ratioP2
63499;SDS011;49654;51.142;14.924;2024-01-30T00:01:40;16.17;;;9.83;;
63499;SDS011;49654;51.142;14.924;2024-01-30T00:04:06;15.23;;;9.90;;
63499;SDS011;49654;51.142;14.924;2024-01-30T00:06:33;15.67;;;10.07;;
63499;SDS011;49654;51.142;14.924;2024-01-30T00:09:00;18.70;;;10.53;;
63499;SDS011;49654;51.142;14.924;2024-01-30T00:11:27;17.73;;;10.47;;
63499;SDS011;49654;51.142;14.924;2024-01-30T00:13:56;14.87;;;10.13;;
63499;SDS011;49654;51.142;14.924;2024-01-30T00:16:23;17.53;;;10.37;;
63499;SDS011;49654;51.142;14.924;2024-01-30T00:18:51;15.47;;;10.20;;
63499;SDS011;49654;51.142;14.924;2024-01-30T00:21:18;20.30;;;11.07;;
63499;SDS011;49654;51.142;14.924;2024-01-30T00:23:45;18.00;;;10.77;;
63499;SDS011;49654;51.142;14.924;2024-01-30T00:26:12;16.77;;;9.97;;
63499;SDS011;49654;51.142;14.924;2024-01-30T00:28:40;18.13;;;10.30;;
63499;SDS011;49654;51.142;14.924;2024-01-30T00:31:09;16.10;;;10.40;;
63499;SDS011;49654;51.142;14.924;2024-01-30T00:33:37;16.33;;;9.57;;
63499;SDS011;49654;51.142;14.924;2024-01-30T00:36:04;17.13;;;10.17;;
63499;SDS011;49654;51.142;14.924;2024-01-30T00:38:32;18.27;;;10.43;;
63499;SDS011;49654;51.142;14.924;2024-01-30T00:40:59;18.00;;;9.73;;
63499;SDS011;49654;51.142;14.924;2024-01-30T00:43:27;17.23;;;10.37;;
63499;SDS011;49654;51.142;14.924;2024-01-30T00:45:54;17.67;;;9.77;;
63499;SDS011;49654;51.142;14.924;2024-01-30T00:48:22;14.40;;;9.50;;
63499;SDS011;49654;51.142;14.924;2024-01-30T00:50:49;12.10;;;9.30;;
63499;SDS011;49654;51.142;14.924;2024-01-30T00:53:16;15.87;;;9.87;;
63499;SDS011;49654;51.142;14.924;2024-01-30T00:55:43;15.57;;;9.50;;
63499;SDS011;49654;51.142;14.924;2024-01-30T00:58:10;18.43;;;9.90;;
63499;SDS011;49654;51.142;14.924;2024-01-30T01:00:37;17.77;;;9.67;;
63499;SDS011;49654;51.142;14.924;2024-01-30T01:03:04;15.87;;;10.13;;
63499;SDS011;49654;51.142;14.924;2024-01-30T01:05:32;16.30;;;9.93;;
63499;SDS011;49654;51.142;14.924;2024-01-30T01:07:59;15.97;;;9.87;;
63499;SDS011;49654;51.142;14.924;2024-01-30T01:10:26;14.80;;;9.87;;
63499;SDS011;49654;51.142;14.924;2024-01-30T01:12:54;16.33;;;10.27;;
63499;SDS011;49654;51.142;14.924;2024-01-30T01:15:21;18.27;;;10.63;;
63499;SDS011;49654;51.142;14.924;2024-01-30T01:17:48;14.60;;;9.87;;
63499;SDS011;49654;51.142;14.924;2024-01-30T01:20:15;18.43;;;9.63;;
63499;SDS011;49654;51.142;14.924;2024-01-30T01:22:43;14.10;;;9.53;;
63499;SDS011;49654;51.142;14.924;2024-01-30T01:25:10;16.57;;;9.50;;
63499;SDS011;49654;51.142;14.924;2024-01-30T01:27:37;15.27;;;9.50;;
63499;SDS011;49654;51.142;14.924;2024-01-30T01:30:07;15.07;;;10.17;;
63499;SDS011;49654;51.142;14.924;2024-01-30T01:32:36;14.03;;;9.47;;
63499;SDS011;49654;51.142;14.924;2024-01-30T01:35:04;14.53;;;9.07;;
63499;SDS011;49654;51.142;14.924;2024-01-30T01:37:32;14.73;;;9.70;;
63499;SDS011;49654;51.142;14.924;2024-01-30T01:40:00;16.23;;;10.00;;
63499;SDS011;49654;51.142;14.924;2024-01-30T01:42:27;13.93;;;9.13;;
63499;SDS011;49654;51.142;14.924;2024-01-30T01:44:54;15.77;;;9.37;;
63499;SDS011;49654;51.142;14.924;2024-01-30T01:47:21;16.63;;;8.43;;
63499;SDS011;49654;51.142;14.924;2024-01-30T01:49:48;14.53;;;9.30;;
63499;SDS011;49654;51.142;14.924;2024-01-30T01:52:15;14.57;;;9.30;;
63499;SDS011;49654;51.142;14.924;2024-01-30T01:54:43;13.97;;;8.90;;
63499;SDS011;49654;51.142;14.924;2024-01-30T01:57:12;18.07;;;9.53;;
63499;SDS011;49654;51.142;14.924;2024-01-30T01:59:39;16.97;;;9.83;;
63499;SDS011;49654;51.142;14.924;2024-01-30T02:02:06;15.57;;;9.23;;
63499;SDS011;49654;51.142;14.924;2024-01-30T02:04:37;15.43;;;9.83;;
63499;SDS011;49654;51.142;14.924;2024-01-30T02:07:05;14.43;;;9.77;;
63499;SDS011;49654;51.142;14.924;2024-01-30T02:09:31;15.40;;;9.70;;
63499;SDS011;49654;51.142;14.924;2024-01-30T02:11:58;14.30;;;9.53;;
63499;SDS011;49654;51.142;14.924;2024-01-30T02:14:27;13.40;;;8.97;;
63499;SDS011;49654;51.142;14.924;2024-01-30T02:16:54;16.60;;;9.83;;
63499;SDS011;49654;51.142;14.924;2024-01-30T02:19:21;13.80;;;9.57;;
63499;SDS011;49654;51.142;14.924;2024-01-30T02:21:49;16.63;;;9.17;;
63499;SDS011;49654;51.142;14.924;2024-01-30T02:24:16;14.33;;;9.17;;
63499;SDS011;49654;51.142;14.924;2024-01-30T02:26:43;14.23;;;9.37;;
63499;SDS011;49654;51.142;14.924;2024-01-30T02:29:10;17.07;;;9.67;;
63499;SDS011;49654;51.142;14.924;2024-01-30T02:31:37;15.43;;;9.33;;
63499;SDS011;49654;51.142;14.924;2024-01-30T02:34:04;16.30;;;10.00;;
63499;SDS011;49654;51.142;14.924;2024-01-30T02:36:31;15.47;;;9.77;;
63499;SDS011;49654;51.142;14.924;2024-01-30T02:38:59;15.13;;;9.50;;
63499;SDS011;49654;51.142;14.924;2024-01-30T02:41:26;17.40;;;10.17;;
63499;SDS011;49654;51.142;14.924;2024-01-30T02:43:53;13.70;;;9.57;;
63499;SDS011;49654;51.142;14.924;2024-01-30T02:46:20;14.67;;;9.67;;
63499;SDS011;49654;51.142;14.924;2024-01-30T02:48:47;16.03;;;9.70;;
63499;SDS011;49654;51.142;14.924;2024-01-30T02:51:14;13.30;;;9.27;;
63499;SDS011;49654;51.142;14.924;2024-01-30T02:53:41;18.80;;;10.00;;
63499;SDS011;49654;51.142;14.924;2024-01-30T02:56:10;12.53;;;8.80;;
63499;SDS011;49654;51.142;14.924;2024-01-30T02:58:37;17.40;;;10.03;;
63499;SDS011;49654;51.142;14.924;2024-01-30T03:01:04;20.20;;;9.83;;
63499;SDS011;49654;51.142;14.924;2024-01-30T03:03:31;15.07;;;10.20;;
63499;SDS011;49654;51.142;14.924;2024-01-30T03:05:59;13.10;;;9.30;;
63499;SDS011;49654;51.142;14.924;2024-01-30T03:08:26;13.77;;;9.43;;
63499;SDS011;49654;51.142;14.924;2024-01-30T03:10:53;16.10;;;9.60;;
63499;SDS011;49654;51.142;14.924;2024-01-30T03:13:22;14.93;;;9.00;;
63499;SDS011;49654;51.142;14.924;2024-01-30T03:15:50;17.23;;;9.47;;
63499;SDS011;49654;51.142;14.924;2024-01-30T03:18:17;15.00;;;9.73;;
63499;SDS011;49654;51.142;14.924;2024-01-30T03:20:44;15.93;;;9.77;;
63499;SDS011;49654;51.142;14.924;2024-01-30T03:23:11;14.70;;;9.53;;
63499;SDS011;49654;51.142;14.924;2024-01-30T03:25:38;19.03;;;9.83;;
63499;SDS011;49654;51.142;14.924;2024-01-30T03:28:05;15.70;;;9.27;;
63499;SDS011;49654;51.142;14.924;2024-01-30T03:30:33;14.00;;;8.60;;
63499;SDS011;49654;51.142;14.924;2024-01-30T03:33:00;15.33;;;9.77;;
63499;SDS011;49654;51.142;14.924;2024-01-30T03:35:28;13.80;;;9.47;;
63499;SDS011;49654;51.142;14.924;2024-01-30T03:37:54;15.87;;;9.00;;
63499;SDS011;49654;51.142;14.924;2024-01-30T03:40:21;17.70;;;9.80;;
63499;SDS011;49654;51.142;14.924;2024-01-30T03:42:48;16.57;;;9.83;;
63499;SDS011;49654;51.142;14.924;2024-01-30T03:45:15;15.80;;;9.37;;
63499;SDS011;49654;51.142;14.924;2024-01-30T03:47:46;11.70;;;8.97;;
63499;SDS011;49654;51.142;14.924;2024-01-30T03:50:13;15.77;;;9.57;;
63499;SDS011;49654;51.142;14.924;2024-01-30T03:52:40;15.00;;;9.03;;
63499;SDS011;49654;51.142;14.924;2024-01-30T03:55:07;18.17;;;10.20;;
63499;SDS011;49654;51.142;14.924;2024-01-30T03:57:34;18.03;;;9.63;;
63499;SDS011;49654;51.142;14.924;2024-01-30T04:00:01;14.77;;;9.83;;
63499;SDS011;49654;51.142;14.924;2024-01-30T04:02:30;15.10;;;9.43;;
63499;SDS011;49654;51.142;14.924;2024-01-30T04:04:58;16.10;;;9.40;;
63499;SDS011;49654;51.142;14.924;2024-01-30T04:07:25;15.20;;;9.33;;
63499;SDS011;49654;51.142;14.924;2024-01-30T04:09:52;14.67;;;9.33;;
63499;SDS011;49654;51.142;14.924;2024-01-30T04:12:19;15.83;;;9.80;;
63499;SDS011;49654;51.142;14.924;2024-01-30T04:14:46;14.87;;;10.03;;
63499;SDS011;49654;51.142;14.924;2024-01-30T04:17:13;15.33;;;9.23;;
63499;SDS011;49654;51.142;14.924;2024-01-30T04:19:40;12.97;;;8.70;;
63499;SDS011;49654;51.142;14.924;2024-01-30T04:22:08;13.30;;;9.43;;
63499;SDS011;49654;51.142;14.924;2024-01-30T04:24:35;17.43;;;9.33;;
63499;SDS011;49654;51.142;14.924;2024-01-30T04:27:02;15.43;;;9.87;;
63499;SDS011;49654;51.142;14.924;2024-01-30T04:29:29;13.13;;;8.73;;
63499;SDS011;49654;51.142;14.924;2024-01-30T04:31:57;19.23;;;9.10;;
63499;SDS011;49654;51.142;14.924;2024-01-30T04:34:24;16.70;;;9.83;;
63499;SDS011;49654;51.142;14.924;2024-01-30T04:36:51;16.70;;;9.60;;
63499;SDS011;49654;51.142;14.924;2024-01-30T04:39:20;17.43;;;9.53;;
63499;SDS011;49654;51.142;14.924;2024-01-30T04:41:47;16.53;;;9.70;;
63499;SDS011;49654;51.142;14.924;2024-01-30T04:44:14;16.53;;;10.10;;
63499;SDS011;49654;51.142;14.924;2024-01-30T04:46:41;16.03;;;9.90;;
63499;SDS011;49654;51.142;14.924;2024-01-30T04:49:08;14.43;;;9.03;;
63499;SDS011;49654;51.142;14.924;2024-01-30T04:51:35;14.63;;;9.37;;
63499;SDS011;49654;51.142;14.924;2024-01-30T04:54:02;16.37;;;9.63;;
63499;SDS011;49654;51.142;14.924;2024-01-30T04:56:30;14.77;;;9.10;;
63499;SDS011;49654;51.142;14.924;2024-01-30T04:58:57;16.80;;;9.73;;
63499;SDS011;49654;51.142;14.924;2024-01-30T05:01:24;15.93;;;9.30;;
63499;SDS011;49654;51.142;14.924;2024-01-30T05:03:51;15.47;;;9.07;;
63499;SDS011;49654;51.142;14.924;2024-01-30T05:06:23;15.00;;;9.00;;
63499;SDS011;49654;51.142;14.924;2024-01-30T05:08:51;14.70;;;9.50;;
63499;SDS011;49654;51.142;14.924;2024-01-30T05:11:18;14.80;;;9.50;;
63499;SDS011;49654;51.142;14.924;2024-01-30T05:13:46;14.60;;;9.50;;
63499;SDS011;49654;51.142;14.924;2024-01-30T05:16:13;15.93;;;9.93;;
63499;SDS011;49654;51.142;14.924;2024-01-30T05:18:44;13.60;;;8.80;;
63499;SDS011;49654;51.142;14.924;2024-01-30T05:21:11;15.80;;;9.40;;
63499;SDS011;49654;51.142;14.924;2024-01-30T05:23:38;15.27;;;9.97;;
63499;SDS011;49654;51.142;14.924;2024-01-30T05:26:05;14.63;;;9.73;;
63499;SDS011;49654;51.142;14.924;2024-01-30T05:28:32;14.97;;;9.57;;
63499;SDS011;49654;51.142;14.924;2024-01-30T05:31:01;15.27;;;9.33;;
63499;SDS011;49654;51.142;14.924;2024-01-30T05:33:28;16.07;;;10.30;;
63499;SDS011;49654;51.142;14.924;2024-01-30T05:35:55;18.87;;;10.20;;
63499;SDS011;49654;51.142;14.924;2024-01-30T05:38:22;18.03;;;10.10;;
63499;SDS011;49654;51.142;14.924;2024-01-30T05:40:49;17.57;;;10.80;;
63499;SDS011;49654;51.142;14.924;2024-01-30T05:43:16;16.33;;;10.43;;
63499;SDS011;49654;51.142;14.924;2024-01-30T05:45:42;17.03;;;10.70;;
63499;SDS011;49654;51.142;14.924;2024-01-30T05:48:11;16.73;;;10.67;;
63499;SDS011;49654;51.142;14.924;2024-01-30T05:50:38;16.67;;;10.33;;
63499;SDS011;49654;51.142;14.924;2024-01-30T05:53:05;14.60;;;10.37;;
63499;SDS011;49654;51.142;14.924;2024-01-30T05:55:32;16.43;;;10.70;;
63499;SDS011;49654;51.142;14.924;2024-01-30T05:57:59;19.53;;;11.30;;
63499;SDS011;49654;51.142;14.924;2024-01-30T06:00:26;16.77;;;11.00;;
63499;SDS011;49654;51.142;14.924;2024-01-30T06:02:53;16.43;;;11.10;;
63499;SDS011;49654;51.142;14.924;2024-01-30T06:05:21;17.27;;;10.70;;
63499;SDS011;49654;51.142;14.924;2024-01-30T06:07:48;15.27;;;10.23;;
63499;SDS011;49654;51.142;14.924;2024-01-30T06:10:14;17.37;;;10.97;;
63499;SDS011;49654;51.142;14.924;2024-01-30T06:12:41;19.67;;;11.40;;
63499;SDS011;49654;51.142;14.924;2024-01-30T06:15:09;19.13;;;10.97;;
63499;SDS011;49654;51.142;14.924;2024-01-30T06:17:38;16.90;;;10.50;;
63499;SDS011;49654;51.142;14.924;2024-01-30T06:20:06;18.93;;;10.90;;
63499;SDS011;49654;51.142;14.924;2024-01-30T06:22:34;17.83;;;10.43;;
63499;SDS011;49654;51.142;14.924;2024-01-30T06:25:02;18.30;;;10.93;;
63499;SDS011;49654;51.142;14.924;2024-01-30T06:27:29;17.60;;;10.60;;
63499;SDS011;49654;51.142;14.924;2024-01-30T06:29:56;18.10;;;10.27;;
63499;SDS011;49654;51.142;14.924;2024-01-30T06:32:23;19.37;;;10.57;;
63499;SDS011;49654;51.142;14.924;2024-01-30T06:34:50;17.40;;;11.30;;
63499;SDS011;49654;51.142;14.924;2024-01-30T06:37:17;16.97;;;10.83;;
63499;SDS011;49654;51.142;14.924;2024-01-30T06:39:45;17.67;;;10.60;;
63499;SDS011;49654;51.142;14.924;2024-01-30T06:42:12;17.73;;;10.50;;
63499;SDS011;49654;51.142;14.924;2024-01-30T06:44:39;16.00;;;10.43;;
63499;SDS011;49654;51.142;14.924;2024-01-30T06:47:06;17.30;;;10.10;;
63499;SDS011;49654;51.142;14.924;2024-01-30T06:49:33;19.60;;;10.80;;
63499;SDS011;49654;51.142;14.924;2024-01-30T06:52:00;16.00;;;10.70;;
63499;SDS011;49654;51.142;14.924;2024-01-30T06:54:27;17.10;;;10.47;;
63499;SDS011;49654;51.142;14.924;2024-01-30T06:56:55;15.80;;;10.23;;
63499;SDS011;49654;51.142;14.924;2024-01-30T06:59:22;18.53;;;11.07;;
63499;SDS011;49654;51.142;14.924;2024-01-30T07:01:49;14.37;;;9.97;;
63499;SDS011;49654;51.142;14.924;2024-01-30T07:04:16;19.33;;;11.00;;
63499;SDS011;49654;51.142;14.924;2024-01-30T07:06:44;15.77;;;10.27;;
63499;SDS011;49654;51.142;14.924;2024-01-30T07:09:11;17.13;;;10.57;;
63499;SDS011;49654;51.142;14.924;2024-01-30T07:11:39;16.47;;;11.20;;
63499;SDS011;49654;51.142;14.924;2024-01-30T07:14:09;18.10;;;10.50;;
63499;SDS011;49654;51.142;14.924;2024-01-30T07:16:36;17.13;;;10.30;;
63499;SDS011;49654;51.142;14.924;2024-01-30T07:19:03;16.67;;;10.80;;
63499;SDS011;49654;51.142;14.924;2024-01-30T07:21:30;20.07;;;10.33;;
63499;SDS011;49654;51.142;14.924;2024-01-30T07:23:57;18.83;;;11.30;;
63499;SDS011;49654;51.142;14.924;2024-01-30T07:26:24;16.87;;;10.80;;
63499;SDS011;49654;51.142;14.924;2024-01-30T07:28:51;16.63;;;10.93;;
63499;SDS011;49654;51.142;14.924;2024-01-30T07:31:19;18.73;;;11.27;;
63499;SDS011;49654;51.142;14.924;2024-01-30T07:33:48;20.13;;;10.97;;
63499;SDS011;49654;51.142;14.924;2024-01-30T07:36:15;17.50;;;10.93;;
63499;SDS011;49654;51.142;14.924;2024-01-30T07:38:42;18.47;;;10.70;;
63499;SDS011;49654;51.142;14.924;2024-01-30T07:41:09;20.57;;;11.47;;
63499;SDS011;49654;51.142;14.924;2024-01-30T07:43:37;18.87;;;10.80;;
63499;SDS011;49654;51.142;14.924;2024-01-30T07:46:05;17.03;;;10.10;;
63499;SDS011;49654;51.142;14.924;2024-01-30T07:48:33;16.30;;;11.07;;
63499;SDS011;49654;51.142;14.924;2024-01-30T07:51:00;16.07;;;9.70;;
63499;SDS011;49654;51.142;14.924;2024-01-30T07:53:29;18.23;;;11.03;;
63499;SDS011;49654;51.142;14.924;2024-01-30T07:55:56;16.13;;;11.13;;
63499;SDS011;49654;51.142;14.924;2024-01-30T07:58:23;19.27;;;10.43;;
63499;SDS011;49654;51.142;14.924;2024-01-30T08:00:52;18.97;;;10.73;;
63499;SDS011;49654;51.142;14.924;2024-01-30T08:03:19;18.50;;;10.83;;
63499;SDS011;49654;51.142;14.924;2024-01-30T08:05:48;19.50;;;10.87;;
63499;SDS011;49654;51.142;14.924;2024-01-30T08:08:15;16.97;;;10.50;;
63499;SDS011;49654;51.142;14.924;2024-01-30T08:10:42;16.00;;;10.30;;
63499;SDS011;49654;51.142;14.924;2024-01-30T08:13:09;18.00;;;10.47;;
63499;SDS011;49654;51.142;14.924;2024-01-30T08:15:35;18.67;;;10.70;;
63499;SDS011;49654;51.142;14.924;2024-01-30T08:18:02;16.90;;;10.70;;
63499;SDS011;49654;51.142;14.924;2024-01-30T08:20:31;14.80;;;9.70;;
63499;SDS011;49654;51.142;14.924;2024-01-30T08:22:59;17.83;;;10.13;;
63499;SDS011;49654;51.142;14.924;2024-01-30T08:25:26;18.77;;;10.77;;
63499;SDS011;49654;51.142;14.924;2024-01-30T08:27:53;14.63;;;9.60;;
63499;SDS011;49654;51.142;14.924;2024-01-30T08:30:20;16.25;;;10.40;;
63499;SDS011;49654;51.142;14.924;2024-01-30T08:32:47;18.70;;;10.20;;
63499;SDS011;49654;51.142;14.924;2024-01-30T08:35:14;15.48;;;10.02;;
63499;SDS011;49654;51.142;14.924;2024-01-30T08:37:42;19.70;;;10.90;;
63499;SDS011;49654;51.142;14.924;2024-01-30T08:40:10;15.65;;;10.60;;
63499;SDS011;49654;51.142;14.924;2024-01-30T08:42:37;16.20;;;9.90;;
63499;SDS011;49654;51.142;14.924;2024-01-30T08:45:04;20.58;;;10.20;;
63499;SDS011;49654;51.142;14.924;2024-01-30T08:47:32;18.13;;;11.00;;
63499;SDS011;49654;51.142;14.924;2024-01-30T08:49:59;15.98;;;10.20;;
63499;SDS011;49654;51.142;14.924;2024-01-30T08:52:26;17.15;;;10.73;;
63499;SDS011;49654;51.142;14.924;2024-01-30T08:54:53;16.40;;;10.70;;
63499;SDS011;49654;51.142;14.924;2024-01-30T08:57:21;15.68;;;10.45;;
63499;SDS011;49654;51.142;14.924;2024-01-30T08:59:48;15.70;;;10.38;;
63499;SDS011;49654;51.142;14.924;2024-01-30T09:02:15;16.88;;;10.60;;
63499;SDS011;49654;51.142;14.924;2024-01-30T09:04:43;15.93;;;10.20;;
63499;SDS011;49654;51.142;14.924;2024-01-30T09:07:10;17.10;;;10.25;;
63499;SDS011;49654;51.142;14.924;2024-01-30T09:09:38;16.90;;;11.00;;
63499;SDS011;49654;51.142;14.924;2024-01-30T09:12:06;17.48;;;11.32;;
63499;SDS011;49654;51.142;14.924;2024-01-30T09:14:36;13.90;;;10.02;;
63499;SDS011;49654;51.142;14.924;2024-01-30T09:17:05;18.97;;;10.30;;
63499;SDS011;49654;51.142;14.924;2024-01-30T09:19:32;14.32;;;10.13;;
63499;SDS011;49654;51.142;14.924;2024-01-30T09:21:59;17.48;;;10.55;;
63499;SDS011;49654;51.142;14.924;2024-01-30T09:24:26;16.03;;;10.50;;
63499;SDS011;49654;51.142;14.924;2024-01-30T09:26:53;19.00;;;11.53;;
63499;SDS011;49654;51.142;14.924;2024-01-30T09:29:20;18.73;;;11.27;;
63499;SDS011;49654;51.142;14.924;2024-01-30T09:31:49;18.92;;;10.45;;
63499;SDS011;49654;51.142;14.924;2024-01-30T09:34:16;14.07;;;9.50;;
63499;SDS011;49654;51.142;14.924;2024-01-30T09:36:43;15.90;;;10.50;;
63499;SDS011;49654;51.142;14.924;2024-01-30T09:39:10;14.82;;;10.55;;
63499;SDS011;49654;51.142;14.924;2024-01-30T09:41:41;14.70;;;9.70;;
63499;SDS011;49654;51.142;14.924;2024-01-30T09:44:15;17.30;;;10.82;;
63499;SDS011;49654;51.142;14.924;2024-01-30T09:46:42;17.70;;;10.15;;
63499;SDS011;49654;51.142;14.924;2024-01-30T09:49:13;17.27;;;9.73;;
63499;SDS011;49654;51.142;14.924;2024-01-30T09:51:41;14.48;;;10.02;;
63499;SDS011;49654;51.142;14.924;2024-01-30T09:54:08;16.23;;;10.20;;
63499;SDS011;49654;51.142;14.924;2024-01-30T09:56:36;17.05;;;10.07;;
63499;SDS011;49654;51.142;14.924;2024-01-30T09:59:03;17.85;;;9.48;;
63499;SDS011;49654;51.142;14.924;2024-01-30T10:01:30;14.77;;;9.75;;
63499;SDS011;49654;51.142;14.924;2024-01-30T10:03:58;15.82;;;9.95;;
63499;SDS011;49654;51.142;14.924;2024-01-30T10:06:26;13.77;;;9.50;;
63499;SDS011;49654;51.142;14.924;2024-01-30T10:08:54;14.73;;;9.82;;
63499;SDS011;49654;51.142;14.924;2024-01-30T10:11:21;13.40;;;9.35;;
63499;SDS011;49654;51.142;14.924;2024-01-30T10:13:48;16.17;;;9.55;;
63499;SDS011;49654;51.142;14.924;2024-01-30T10:16:15;16.52;;;10.05;;
63499;SDS011;49654;51.142;14.924;2024-01-30T10:18:43;15.73;;;10.52;;
63499;SDS011;49654;51.142;14.924;2024-01-30T10:21:10;16.73;;;10.00;;
63499;SDS011;49654;51.142;14.924;2024-01-30T10:23:38;15.15;;;9.50;;
63499;SDS011;49654;51.142;14.924;2024-01-30T10:26:06;16.45;;;9.77;;
63499;SDS011;49654;51.142;14.924;2024-01-30T10:28:34;19.65;;;10.38;;
63499;SDS011;49654;51.142;14.924;2024-01-30T10:31:01;15.95;;;9.90;;
63499;SDS011;49654;51.142;14.924;2024-01-30T10:33:29;16.63;;;10.15;;
63499;SDS011;49654;51.142;14.924;2024-01-30T10:35:59;14.60;;;10.05;;
63499;SDS011;49654;51.142;14.924;2024-01-30T10:38:28;17.48;;;9.68;;
63499;SDS011;49654;51.142;14.924;2024-01-30T10:40:58;14.90;;;9.98;;
63499;SDS011;49654;51.142;14.924;2024-01-30T10:43:28;16.25;;;9.32;;
63499;SDS011;49654;51.142;14.924;2024-01-30T10:45:59;13.93;;;9.25;;
63499;SDS011;49654;51.142;14.924;2024-01-30T10:48:33;14.57;;;9.85;;
63499;SDS011;49654;51.142;14.924;2024-01-30T10:51:08;15.38;;;9.32;;
63499;SDS011;49654;51.142;14.924;2024-01-30T10:53:38;13.65;;;9.82;;
63499;SDS011;49654;51.142;14.924;2024-01-30T10:56:07;15.73;;;9.73;;
63499;SDS011;49654;51.142;14.924;2024-01-30T10:58:36;14.55;;;10.10;;
63499;SDS011;49654;51.142;14.924;2024-01-30T11:01:03;15.20;;;10.13;;
63499;SDS011;49654;51.142;14.924;2024-01-30T11:03:32;15.40;;;9.88;;
63499;SDS011;49654;51.142;14.924;2024-01-30T11:06:02;17.48;;;10.32;;
63499;SDS011;49654;51.142;14.924;2024-01-30T11:08:31;16.27;;;10.05;;
63499;SDS011;49654;51.142;14.924;2024-01-30T11:10:58;18.08;;;10.55;;
63499;SDS011;49654;51.142;14.924;2024-01-30T11:13:30;17.27;;;10.45;;
63499;SDS011;49654;51.142;14.924;2024-01-30T11:16:00;17.63;;;10.68;;
63499;SDS011;49654;51.142;14.924;2024-01-30T11:18:28;26.73;;;10.75;;
63499;SDS011;49654;51.142;14.924;2024-01-30T11:20:57;18.45;;;10.60;;
63499;SDS011;49654;51.142;14.924;2024-01-30T11:23:25;17.75;;;10.32;;
63499;SDS011;49654;51.142;14.924;2024-01-30T11:25:52;16.42;;;11.30;;
63499;SDS011;49654;51.142;14.924;2024-01-30T11:28:20;18.58;;;11.48;;
63499;SDS011;49654;51.142;14.924;2024-01-30T11:30:50;14.95;;;10.10;;
63499;SDS011;49654;51.142;14.924;2024-01-30T11:33:27;15.77;;;10.77;;
63499;SDS011;49654;51.142;14.924;2024-01-30T11:35:56;16.52;;;10.52;;
63499;SDS011;49654;51.142;14.924;2024-01-30T11:38:24;14.32;;;10.20;;
63499;SDS011;49654;51.142;14.924;2024-01-30T11:40:53;18.65;;;10.30;;
63499;SDS011;49654;51.142;14.924;2024-01-30T11:43:20;17.13;;;10.75;;
63499;SDS011;49654;51.142;14.924;2024-01-30T11:45:47;19.95;;;11.27;;
63499;SDS011;49654;51.142;14.924;2024-01-30T11:48:16;16.38;;;10.40;;
63499;SDS011;49654;51.142;14.924;2024-01-30T11:50:43;17.30;;;11.15;;
63499;SDS011;49654;51.142;14.924;2024-01-30T11:53:11;15.73;;;10.68;;
63499;SDS011;49654;51.142;14.924;2024-01-30T11:55:38;19.33;;;11.27;;
63499;SDS011;49654;51.142;14.924;2024-01-30T11:58:05;17.65;;;10.65;;
63499;SDS011;49654;51.142;14.924;2024-01-30T12:00:32;15.27;;;10.52;;
63499;SDS011;49654;51.142;14.924;2024-01-30T12:03:01;16.80;;;11.70;;
63499;SDS011;49654;51.142;14.924;2024-01-30T12:05:28;13.50;;;10.10;;
63499;SDS011;49654;51.142;14.924;2024-01-30T12:07:55;18.20;;;11.23;;
63499;SDS011;49654;51.142;14.924;2024-01-30T12:10:24;18.35;;;11.02;;
63499;SDS011;49654;51.142;14.924;2024-01-30T12:12:52;16.63;;;10.70;;
63499;SDS011;49654;51.142;14.924;2024-01-30T12:15:21;17.30;;;11.55;;
63499;SDS011;49654;51.142;14.924;2024-01-30T12:17:48;18.10;;;11.10;;
63499;SDS011;49654;51.142;14.924;2024-01-30T12:20:18;18.30;;;11.45;;
63499;SDS011;49654;51.142;14.924;2024-01-30T12:22:47;20.90;;;11.80;;
63499;SDS011;49654;51.142;14.924;2024-01-30T12:25:15;17.50;;;11.00;;
63499;SDS011;49654;51.142;14.924;2024-01-30T12:27:44;15.07;;;10.25;;
63499;SDS011;49654;51.142;14.924;2024-01-30T12:30:15;21.20;;;12.18;;
63499;SDS011;49654;51.142;14.924;2024-01-30T12:32:44;15.80;;;10.82;;
63499;SDS011;49654;51.142;14.924;2024-01-30T12:35:12;16.05;;;11.20;;
63499;SDS011;49654;51.142;14.924;2024-01-30T12:37:42;16.73;;;11.60;;
63499;SDS011;49654;51.142;14.924;2024-01-30T12:40:10;16.90;;;11.88;;
63499;SDS011;49654;51.142;14.924;2024-01-30T12:42:38;14.90;;;10.73;;
63499;SDS011;49654;51.142;14.924;2024-01-30T12:45:06;15.50;;;10.93;;
63499;SDS011;49654;51.142;14.924;2024-01-30T12:47:33;18.40;;;11.30;;
63499;SDS011;49654;51.142;14.924;2024-01-30T12:50:00;17.20;;;11.32;;
63499;SDS011;49654;51.142;14.924;2024-01-30T12:52:35;18.52;;;11.52;;
63499;SDS011;49654;51.142;14.924;2024-01-30T12:55:04;18.70;;;11.57;;
63499;SDS011;49654;51.142;14.924;2024-01-30T12:57:31;16.55;;;10.57;;
63499;SDS011;49654;51.142;14.924;2024-01-30T12:59:58;16.50;;;11.00;;
63499;SDS011;49654;51.142;14.924;2024-01-30T13:02:25;16.17;;;10.98;;
63499;SDS011;49654;51.142;14.924;2024-01-30T13:05:00;16.83;;;10.88;;
63499;SDS011;49654;51.142;14.924;2024-01-30T13:07:27;14.65;;;10.95;;
63499;SDS011;49654;51.142;14.924;2024-01-30T13:09:54;17.52;;;11.30;;
63499;SDS011;49654;51.142;14.924;2024-01-30T13:12:22;16.85;;;11.27;;
63499;SDS011;49654;51.142;14.924;2024-01-30T13:14:49;16.85;;;11.82;;
63499;SDS011;49654;51.142;14.924;2024-01-30T13:17:16;17.55;;;11.60;;
63499;SDS011;49654;51.142;14.924;2024-01-30T13:19:43;18.48;;;11.68;;
63499;SDS011;49654;51.142;14.924;2024-01-30T13:22:10;16.40;;;12.10;;
63499;SDS011;49654;51.142;14.924;2024-01-30T13:24:37;16.13;;;11.43;;
63499;SDS011;49654;51.142;14.924;2024-01-30T13:27:04;16.70;;;12.65;;
63499;SDS011;49654;51.142;14.924;2024-01-30T13:29:33;18.27;;;11.93;;
63499;SDS011;49654;51.142;14.924;2024-01-30T13:32:00;18.85;;;11.20;;
63499;SDS011;49654;51.142;14.924;2024-01-30T13:34:27;20.50;;;12.35;;
63499;SDS011;49654;51.142;14.924;2024-01-30T13:36:54;17.88;;;12.13;;
63499;SDS011;49654;51.142;14.924;2024-01-30T13:39:21;16.77;;;11.95;;
63499;SDS011;49654;51.142;14.924;2024-01-30T13:41:48;17.55;;;13.10;;
63499;SDS011;49654;51.142;14.924;2024-01-30T13:44:16;17.98;;;12.27;;
63499;SDS011;49654;51.142;14.924;2024-01-30T13:46:44;21.30;;;12.50;;
63499;SDS011;49654;51.142;14.924;2024-01-30T13:49:11;20.67;;;12.90;;
63499;SDS011;49654;51.142;14.924;2024-01-30T13:51:38;20.83;;;12.98;;
63499;SDS011;49654;51.142;14.924;2024-01-30T13:54:05;20.02;;;12.93;;
63499;SDS011;49654;51.142;14.924;2024-01-30T13:56:32;22.42;;;13.25;;
63499;SDS011;49654;51.142;14.924;2024-01-30T13:58:59;17.27;;;12.48;;
63499;SDS011;49654;51.142;14.924;2024-01-30T14:01:27;19.63;;;13.07;;
63499;SDS011;49654;51.142;14.924;2024-01-30T14:03:55;17.92;;;11.80;;
63499;SDS011;49654;51.142;14.924;2024-01-30T14:06:22;21.05;;;13.98;;
63499;SDS011;49654;51.142;14.924;2024-01-30T14:08:49;20.30;;;13.35;;
63499;SDS011;49654;51.142;14.924;2024-01-30T14:11:16;20.65;;;13.80;;
63499;SDS011;49654;51.142;14.924;2024-01-30T14:13:42;19.40;;;13.18;;
63499;SDS011;49654;51.142;14.924;2024-01-30T14:16:09;23.95;;;13.38;;